createdAt,value
2022-09-28T00:00:44.090Z,13.68
2022-09-28T00:01:44.318Z,13.67
2022-09-28T00:02:44.525Z,13.68
2022-09-28T00:03:44.618Z,13.68
2022-09-28T00:04:44.770Z,13.68
2022-09-28T00:05:44.959Z,13.71
2022-09-28T00:06:45.119Z,13.70
2022-09-28T00:07:45.297Z,13.71
2022-09-28T00:08:45.438Z,13.74
2022-09-28T00:09:45.628Z,13.72
2022-09-28T00:10:45.817Z,13.74
2022-09-28T00:11:46.000Z,13.72
2022-09-28T00:12:46.170Z,13.72
2022-09-28T00:13:46.325Z,13.72
2022-09-28T00:14:46.470Z,13.74
2022-09-28T00:15:46.658Z,13.75
2022-09-28T00:16:46.900Z,13.77
2022-09-28T00:17:47.039Z,13.75
2022-09-28T00:18:47.189Z,13.72
2022-09-28T00:19:47.388Z,13.74
2022-09-28T00:20:47.568Z,13.75
2022-09-28T00:21:47.762Z,13.72
2022-09-28T00:22:47.928Z,13.74
2022-09-28T00:23:48.087Z,13.74
2022-09-28T00:24:48.270Z,13.74
2022-09-28T00:25:48.479Z,13.75
2022-09-28T00:26:48.631Z,13.75
2022-09-28T00:27:48.846Z,13.77
2022-09-28T00:28:48.995Z,13.74
2022-09-28T00:29:49.198Z,13.72
2022-09-28T00:30:49.351Z,13.72
2022-09-28T00:31:49.598Z,13.71
2022-09-28T00:32:49.723Z,13.70
2022-09-28T00:33:49.859Z,13.70
2022-09-28T00:34:50.037Z,13.70
2022-09-28T00:35:50.230Z,13.70
2022-09-28T00:36:50.410Z,13.70
2022-09-28T00:37:50.618Z,13.70
2022-09-28T00:38:50.781Z,13.68
2022-09-28T00:39:50.949Z,13.68
2022-09-28T00:40:51.216Z,13.70
2022-09-28T00:41:51.335Z,13.70
2022-09-28T00:42:51.507Z,13.68
2022-09-28T00:43:51.668Z,13.68
2022-09-28T00:44:51.856Z,13.68
2022-09-28T00:45:52.074Z,13.68
2022-09-28T00:46:52.198Z,13.67
2022-09-28T00:47:52.407Z,13.67
2022-09-28T00:48:52.556Z,13.70
2022-09-28T00:49:52.747Z,13.68
2022-09-28T00:50:52.917Z,13.67
2022-09-28T00:51:53.079Z,13.62
2022-09-28T00:52:53.265Z,13.60
2022-09-28T00:53:53.417Z,13.60
2022-09-28T00:54:53.567Z,13.62
2022-09-28T00:55:53.776Z,13.59
2022-09-28T00:56:53.927Z,13.59
2022-09-28T00:57:54.137Z,13.54
2022-09-28T00:58:54.287Z,13.52
2022-09-28T00:59:54.489Z,13.52
2022-09-28T01:00:54.690Z,13.52
2022-09-28T01:01:54.856Z,13.52
2022-09-28T01:02:55.007Z,13.52
2022-09-28T01:03:55.157Z,13.53
2022-09-28T01:04:55.346Z,13.52
2022-09-28T01:05:55.497Z,13.53
2022-09-28T01:06:55.696Z,13.53
2022-09-28T01:07:56.017Z,13.56
2022-09-28T01:08:56.026Z,13.59
2022-09-28T01:09:56.194Z,13.56
2022-09-28T01:10:56.346Z,13.56
2022-09-28T01:11:56.530Z,13.53
2022-09-28T01:12:56.727Z,13.53
2022-09-28T01:13:56.886Z,13.52
2022-09-28T01:14:57.071Z,13.54
2022-09-28T01:15:57.294Z,13.53
2022-09-28T01:16:57.426Z,13.54
2022-09-28T01:17:57.654Z,13.52
2022-09-28T01:18:57.766Z,13.52
2022-09-28T01:19:57.956Z,13.49
2022-09-28T01:20:58.145Z,13.49
2022-09-28T01:21:58.349Z,13.52
2022-09-28T01:22:58.506Z,13.50
2022-09-28T01:23:58.666Z,13.52
2022-09-28T01:24:58.855Z,13.53
2022-09-28T01:25:59.045Z,13.52
2022-09-28T01:26:59.225Z,13.52
2022-09-28T01:27:59.388Z,13.52
2022-09-28T01:28:59.537Z,13.52
2022-09-28T01:29:59.738Z,13.53
2022-09-28T01:30:59.887Z,13.53
2022-09-28T01:32:00.180Z,13.53
2022-09-28T01:33:00.247Z,13.49
2022-09-28T01:34:00.406Z,13.52
2022-09-28T01:35:00.565Z,13.50
2022-09-28T01:36:00.727Z,13.49
2022-09-28T01:37:00.909Z,13.52
2022-09-28T01:38:01.056Z,13.50
2022-09-28T01:39:01.206Z,13.52
2022-09-28T01:40:01.397Z,13.46
2022-09-28T01:41:01.585Z,13.46
2022-09-28T01:42:01.796Z,13.44
2022-09-28T01:43:01.953Z,13.41
2022-09-28T01:44:02.135Z,13.44
2022-09-28T01:45:02.324Z,13.42
2022-09-28T01:46:02.566Z,13.44
2022-09-28T01:47:02.717Z,13.42
2022-09-28T01:48:02.875Z,13.42
2022-09-28T01:49:03.055Z,13.42
2022-09-28T01:50:03.255Z,13.44
2022-09-28T01:51:03.414Z,13.41
2022-09-28T01:52:03.606Z,13.41
2022-09-28T01:53:03.763Z,13.42
2022-09-28T01:54:03.945Z,13.44
2022-09-28T01:55:04.114Z,13.46
2022-09-28T01:56:04.265Z,13.47
2022-09-28T01:57:04.478Z,13.47
2022-09-28T01:58:04.644Z,13.49
2022-09-28T01:59:04.795Z,13.49
2022-09-28T02:00:04.983Z,13.50
2022-09-28T02:01:05.323Z,13.52
2022-09-28T02:02:05.413Z,13.50
2022-09-28T02:03:05.505Z,13.47
2022-09-28T02:04:05.717Z,13.47
2022-09-28T02:05:05.856Z,13.50
2022-09-28T02:06:06.077Z,13.47
2022-09-28T02:07:06.242Z,13.47
2022-09-28T02:08:06.394Z,13.47
2022-09-28T02:09:06.585Z,13.49
2022-09-28T02:10:06.784Z,13.49
2022-09-28T02:11:06.954Z,13.50
2022-09-28T02:12:07.114Z,13.50
2022-09-28T02:13:07.275Z,13.50
2022-09-28T02:14:07.464Z,13.50
2022-09-28T02:15:07.655Z,13.46
2022-09-28T02:16:07.890Z,13.47
2022-09-28T02:17:08.004Z,13.46
2022-09-28T02:18:08.204Z,13.49
2022-09-28T02:19:08.375Z,13.49
2022-09-28T02:20:08.545Z,13.47
2022-09-28T02:21:08.706Z,13.44
2022-09-28T02:22:08.864Z,13.41
2022-09-28T02:23:09.054Z,13.39
2022-09-28T02:24:09.242Z,13.35
2022-09-28T02:25:09.437Z,13.31
2022-09-28T02:26:09.614Z,13.28
2022-09-28T02:27:09.764Z,13.30
2022-09-28T02:28:09.957Z,13.27
2022-09-28T02:29:10.214Z,13.27
2022-09-28T02:30:10.334Z,13.23
2022-09-28T02:31:10.545Z,13.22
2022-09-28T02:32:10.683Z,13.20
2022-09-28T02:33:10.835Z,13.20
2022-09-28T02:34:11.027Z,13.16
2022-09-28T02:35:11.185Z,13.18
2022-09-28T02:36:11.356Z,13.19
2022-09-28T02:37:11.504Z,13.20
2022-09-28T02:38:11.693Z,13.19
2022-09-28T02:39:11.893Z,13.16
2022-09-28T02:40:12.091Z,13.18
2022-09-28T02:41:12.234Z,13.13
2022-09-28T02:42:12.423Z,13.12
2022-09-28T02:43:12.604Z,13.11
2022-09-28T02:44:12.791Z,13.11
2022-09-28T02:45:12.994Z,13.12
2022-09-28T02:46:13.208Z,13.12
2022-09-28T02:47:13.313Z,13.11
2022-09-28T02:48:13.534Z,13.12
2022-09-28T02:49:22.286Z,13.11
2022-09-28T02:50:14.903Z,13.12
2022-09-28T02:51:14.033Z,13.11
2022-09-28T02:52:14.233Z,13.11
2022-09-28T02:53:14.391Z,13.12
2022-09-28T02:54:18.658Z,13.12
2022-09-28T02:55:14.763Z,13.12
2022-09-28T02:56:14.923Z,13.12
2022-09-28T02:57:15.101Z,13.11
2022-09-28T02:58:15.303Z,13.12
2022-09-28T02:59:15.520Z,13.11
2022-09-28T03:00:15.654Z,13.08
2022-09-28T03:01:15.899Z,13.08
2022-09-28T03:02:16.042Z,13.04
2022-09-28T03:03:16.172Z,13.04
2022-09-28T03:04:16.362Z,12.98
2022-09-28T03:05:16.546Z,12.95
2022-09-28T03:06:16.702Z,12.94
2022-09-28T03:07:16.853Z,12.93
2022-09-28T03:08:17.042Z,12.91
2022-09-28T03:09:17.259Z,12.87
2022-09-28T03:10:17.402Z,12.90
2022-09-28T03:11:17.542Z,12.91
2022-09-28T03:12:17.743Z,12.90
2022-09-28T03:13:17.894Z,12.91
2022-09-28T03:14:18.091Z,12.94
2022-09-28T03:15:18.252Z,12.94
2022-09-28T03:16:18.437Z,12.94
2022-09-28T03:17:18.572Z,12.95
2022-09-28T03:18:18.732Z,12.98
2022-09-28T03:19:18.915Z,12.98
2022-09-28T03:20:19.103Z,12.98
2022-09-28T03:21:19.267Z,12.98
2022-09-28T03:22:19.452Z,13.01
2022-09-28T03:23:24.799Z,13.01
2022-09-28T03:24:20.791Z,13.01
2022-09-28T03:25:19.931Z,13.01
2022-09-28T03:26:20.121Z,13.04
2022-09-28T03:27:20.301Z,13.03
2022-09-28T03:28:20.492Z,13.03
2022-09-28T03:29:20.695Z,13.00
2022-09-28T03:30:20.842Z,12.98
2022-09-28T03:31:21.066Z,12.98
2022-09-28T03:32:21.208Z,12.94
2022-09-28T03:33:21.372Z,12.91
2022-09-28T03:34:21.552Z,12.87
2022-09-28T03:35:21.713Z,12.82
2022-09-28T03:36:21.900Z,12.79
2022-09-28T03:37:22.052Z,12.78
2022-09-28T03:38:22.251Z,12.73
2022-09-28T03:39:22.413Z,12.72
2022-09-28T03:40:22.664Z,12.67
2022-09-28T03:41:22.751Z,12.64
2022-09-28T03:42:22.942Z,12.60
2022-09-28T03:43:23.121Z,12.60
2022-09-28T03:44:23.341Z,12.57
2022-09-28T03:45:23.501Z,12.55
2022-09-28T03:46:23.687Z,12.54
2022-09-28T03:47:23.831Z,12.49
2022-09-28T03:48:26.650Z,12.53
2022-09-28T03:49:24.191Z,12.50
2022-09-28T03:50:24.360Z,12.47
2022-09-28T03:51:24.510Z,12.49
2022-09-28T03:52:24.740Z,12.47
2022-09-28T03:53:24.861Z,12.45
2022-09-28T03:54:25.070Z,12.43
2022-09-28T03:55:25.223Z,12.42
2022-09-28T03:56:25.420Z,12.40
2022-09-28T03:57:25.580Z,12.43
2022-09-28T03:58:25.739Z,12.39
2022-09-28T03:59:25.950Z,12.37
2022-09-28T04:00:26.100Z,12.37
2022-09-28T04:01:26.418Z,12.35
2022-09-28T04:02:26.557Z,12.31
2022-09-28T04:03:26.639Z,12.29
2022-09-28T04:04:26.810Z,12.28
2022-09-28T04:05:26.970Z,12.28
2022-09-28T04:06:27.127Z,12.22
2022-09-28T04:07:30.876Z,12.22
2022-09-28T04:08:27.457Z,12.20
2022-09-28T04:09:27.667Z,12.17
2022-09-28T04:10:27.818Z,12.13
2022-09-28T04:11:34.901Z,12.07
2022-09-28T04:12:29.189Z,12.06
2022-09-28T04:13:28.359Z,12.04
2022-09-28T04:14:28.552Z,12.03
2022-09-28T04:15:28.711Z,12.00
2022-09-28T04:16:28.921Z,12.00
2022-09-28T04:17:29.039Z,11.99
2022-09-28T04:18:29.189Z,11.99
2022-09-28T04:19:29.370Z,11.97
2022-09-28T04:20:29.548Z,11.99
2022-09-28T04:21:29.708Z,11.97
2022-09-28T04:22:29.870Z,12.00
2022-09-28T04:23:30.039Z,11.97
2022-09-28T04:24:30.189Z,12.00
2022-09-28T04:25:30.378Z,12.00
2022-09-28T04:26:30.551Z,12.02
2022-09-28T04:27:30.720Z,12.03
2022-09-28T04:28:30.879Z,12.04
2022-09-28T04:29:31.039Z,12.07
2022-09-28T04:30:31.204Z,12.09
2022-09-28T04:31:31.431Z,12.07
2022-09-28T04:32:31.570Z,12.12
2022-09-28T04:33:31.792Z,12.13
2022-09-28T04:34:35.433Z,12.15
2022-09-28T04:35:33.118Z,12.18
2022-09-28T04:36:32.298Z,12.20
2022-09-28T04:37:32.498Z,12.27
2022-09-28T04:38:51.757Z,12.25
2022-09-28T04:39:33.818Z,12.22
2022-09-28T04:40:33.014Z,12.24
2022-09-28T04:41:33.177Z,12.27
2022-09-28T04:42:33.328Z,12.27
2022-09-28T04:43:33.541Z,12.28
2022-09-28T04:44:33.698Z,12.29
2022-09-28T04:45:33.917Z,12.28
2022-09-28T04:46:34.045Z,12.28
2022-09-28T04:47:34.261Z,12.32
2022-09-28T04:48:34.401Z,12.32
2022-09-28T04:49:34.588Z,12.37
2022-09-28T04:50:34.768Z,12.40
2022-09-28T04:51:34.955Z,12.42
2022-09-28T04:52:35.127Z,12.46
2022-09-28T04:53:35.328Z,12.50
2022-09-28T04:54:35.487Z,12.54
2022-09-28T04:55:35.658Z,12.57
2022-09-28T04:56:35.837Z,12.58
2022-09-28T04:57:36.011Z,12.60
2022-09-28T04:58:36.196Z,12.62
2022-09-28T04:59:36.346Z,12.64
2022-09-28T05:00:36.516Z,12.62
2022-09-28T05:01:36.754Z,12.61
2022-09-28T05:02:36.926Z,12.62
2022-09-28T05:03:37.087Z,12.65
2022-09-28T05:04:37.252Z,12.65
2022-09-28T05:05:37.415Z,12.67
2022-09-28T05:06:37.599Z,12.64
2022-09-28T05:07:37.776Z,12.65
2022-09-28T05:08:37.956Z,12.65
2022-09-28T05:09:38.692Z,12.68
2022-09-28T05:10:38.308Z,12.70
2022-09-28T05:11:38.487Z,12.72
2022-09-28T05:12:38.677Z,12.73
2022-09-28T05:13:38.869Z,12.76
2022-09-28T05:14:39.036Z,12.75
2022-09-28T05:15:39.214Z,12.80
2022-09-28T05:16:39.416Z,12.83
2022-09-28T05:17:39.529Z,12.82
2022-09-28T05:18:39.746Z,12.83
2022-09-28T05:19:39.914Z,12.82
2022-09-28T05:20:40.095Z,12.80
2022-09-28T05:21:40.257Z,12.80
2022-09-28T05:22:40.442Z,12.83
2022-09-28T05:23:40.616Z,12.85
2022-09-28T05:24:40.762Z,12.87
2022-09-28T05:25:40.970Z,12.91
2022-09-28T05:26:41.096Z,12.91
2022-09-28T05:27:41.276Z,12.97
2022-09-28T05:28:41.484Z,12.95
2022-09-28T05:29:41.636Z,12.94
2022-09-28T05:30:41.836Z,12.95
2022-09-28T05:31:42.043Z,12.95
2022-09-28T05:32:42.127Z,12.97
2022-09-28T05:33:42.325Z,12.95
2022-09-28T05:34:42.469Z,13.00
2022-09-28T05:35:42.657Z,13.01
2022-09-28T05:36:42.829Z,13.01
2022-09-28T05:37:43.004Z,13.05
2022-09-28T05:38:43.163Z,13.04
2022-09-28T05:39:43.326Z,13.03
2022-09-28T05:40:43.516Z,13.03
2022-09-28T05:41:43.640Z,13.04
2022-09-28T05:42:43.795Z,13.05
2022-09-28T05:43:44.029Z,13.11
2022-09-28T05:44:44.154Z,13.11
2022-09-28T05:45:44.468Z,13.12
2022-09-28T05:46:44.504Z,13.13
2022-09-28T05:47:44.747Z,13.15
2022-09-28T05:48:44.874Z,13.16
2022-09-28T05:49:45.056Z,13.20
2022-09-28T05:50:45.234Z,13.23
2022-09-28T05:51:45.429Z,13.28
2022-09-28T05:52:45.593Z,13.33
2022-09-28T05:53:45.815Z,13.37
2022-09-28T05:54:45.953Z,13.42
2022-09-28T05:55:46.156Z,13.49
2022-09-28T05:56:46.318Z,13.53
2022-09-28T05:57:46.467Z,13.62
2022-09-28T05:58:46.674Z,13.68
2022-09-28T05:59:46.850Z,13.75
2022-09-28T06:00:47.033Z,13.77
2022-09-28T06:01:47.161Z,13.81
2022-09-28T06:02:47.375Z,13.85
2022-09-28T06:03:47.500Z,13.87
2022-09-28T06:04:47.637Z,13.90
2022-09-28T06:05:47.818Z,13.92
2022-09-28T06:06:47.986Z,13.96
2022-09-28T06:07:48.185Z,14.00
2022-09-28T06:08:48.399Z,13.99
2022-09-28T06:09:48.564Z,13.97
2022-09-28T06:10:48.694Z,13.97
2022-09-28T06:11:48.865Z,13.97
2022-09-28T06:12:49.093Z,13.97
2022-09-28T06:13:49.294Z,13.95
2022-09-28T06:14:49.494Z,13.96
2022-09-28T06:15:49.633Z,13.95
2022-09-28T06:16:49.800Z,13.93
2022-09-28T06:17:49.983Z,13.89
2022-09-28T06:18:50.129Z,13.83
2022-09-28T06:19:50.294Z,13.83
2022-09-28T06:20:50.495Z,13.81
2022-09-28T06:21:50.634Z,13.77
2022-09-28T06:22:50.812Z,13.75
2022-09-28T06:23:51.015Z,13.70
2022-09-28T06:24:51.166Z,13.65
2022-09-28T06:25:51.324Z,13.65
2022-09-28T06:26:51.538Z,13.62
2022-09-28T06:27:51.664Z,13.68
2022-09-28T06:28:51.895Z,13.72
2022-09-28T06:29:52.037Z,13.75
2022-09-28T06:30:52.305Z,13.81
2022-09-28T06:31:52.375Z,13.83
2022-09-28T06:32:52.554Z,13.83
2022-09-28T06:33:52.744Z,13.83
2022-09-28T06:34:56.320Z,13.92
2022-09-28T06:35:53.094Z,14.05
2022-09-28T06:36:53.274Z,14.22
2022-09-28T06:37:53.463Z,14.35
2022-09-28T06:38:53.658Z,14.43
2022-09-28T06:39:53.834Z,14.50
2022-09-28T06:40:54.021Z,14.51
2022-09-28T06:41:54.183Z,14.53
2022-09-28T06:42:54.473Z,14.55
2022-09-28T06:43:54.566Z,14.48
2022-09-28T06:44:54.725Z,14.45
2022-09-28T06:45:54.959Z,14.37
2022-09-28T06:46:55.071Z,14.41
2022-09-28T06:47:55.255Z,14.43
2022-09-28T06:48:55.444Z,14.44
2022-09-28T06:49:55.635Z,14.36
2022-09-28T06:50:55.783Z,14.33
2022-09-28T06:51:55.965Z,14.30
2022-09-28T06:52:56.134Z,14.32
2022-09-28T06:53:56.344Z,14.32
2022-09-28T06:54:56.515Z,14.33
2022-09-28T06:55:56.643Z,14.22
2022-09-28T06:56:56.832Z,14.22
2022-09-28T06:57:57.027Z,14.20
2022-09-28T06:58:57.193Z,14.20
2022-09-28T06:59:57.393Z,14.14
2022-09-28T07:00:57.596Z,14.14
2022-09-28T07:01:57.795Z,14.14
2022-09-28T07:02:57.867Z,14.20
2022-09-28T07:03:58.054Z,14.28
2022-09-28T07:04:58.233Z,14.32
2022-09-28T07:05:58.414Z,14.35
2022-09-28T07:06:58.602Z,14.41
2022-09-28T07:07:58.771Z,14.47
2022-09-28T07:09:11.755Z,14.50
2022-09-28T07:10:00.128Z,14.55
2022-09-28T07:10:59.293Z,14.58
2022-09-28T07:11:59.473Z,14.62
2022-09-28T07:12:59.652Z,14.65
2022-09-28T07:13:59.869Z,14.70
2022-09-28T07:15:00.023Z,14.73
2022-09-28T07:16:00.203Z,14.79
2022-09-28T07:17:13.147Z,14.82
2022-09-28T07:18:03.608Z,14.86
2022-09-28T07:19:00.731Z,14.92
2022-09-28T07:20:10.890Z,14.97
2022-09-28T07:21:02.092Z,14.99
2022-09-28T07:22:05.243Z,14.97
2022-09-28T07:23:14.656Z,15.03
2022-09-28T07:24:02.575Z,15.11
2022-09-28T07:25:01.765Z,15.18
2022-09-28T07:26:02.125Z,15.28
2022-09-28T07:27:02.112Z,15.39
2022-09-28T07:28:02.311Z,15.49
2022-09-28T07:29:02.472Z,15.62
2022-09-28T07:30:02.653Z,15.72
2022-09-28T07:31:02.839Z,15.79
2022-09-28T07:32:02.993Z,15.82
2022-09-28T07:33:03.186Z,15.83
2022-09-28T07:34:03.363Z,15.90
2022-09-28T07:35:03.534Z,15.92
2022-09-28T07:36:03.710Z,16.00
2022-09-28T07:37:03.884Z,16.04
2022-09-28T07:38:04.085Z,16.09
2022-09-28T07:39:04.252Z,16.12
2022-09-28T07:40:04.438Z,16.08
2022-09-28T07:41:04.640Z,16.08
2022-09-28T07:42:04.805Z,16.13
2022-09-28T07:43:04.992Z,16.16
2022-09-28T07:44:05.166Z,16.24
2022-09-28T07:45:05.355Z,16.28
2022-09-28T07:46:05.616Z,16.33
2022-09-28T07:47:05.722Z,16.35
2022-09-28T07:48:05.964Z,16.36
2022-09-28T07:49:09.715Z,16.36
2022-09-28T07:50:07.313Z,16.43
2022-09-28T07:51:06.384Z,16.53
2022-09-28T07:52:06.615Z,16.58
2022-09-28T07:53:06.723Z,16.65
2022-09-28T07:54:06.903Z,16.72
2022-09-28T07:55:07.538Z,16.78
2022-09-28T07:56:07.288Z,16.86
2022-09-28T07:57:07.448Z,16.93
2022-09-28T07:58:07.640Z,16.96
2022-09-28T07:59:07.810Z,16.89
2022-09-28T08:00:07.985Z,16.76
2022-09-28T08:01:08.204Z,16.60
2022-09-28T08:02:08.406Z,16.51
2022-09-28T08:03:08.532Z,16.46
2022-09-28T08:04:08.724Z,16.41
2022-09-28T08:05:08.854Z,16.29
2022-09-28T08:06:09.033Z,16.29
2022-09-28T08:07:09.213Z,16.31
2022-09-28T08:08:09.412Z,16.36
2022-09-28T08:09:09.584Z,16.41
2022-09-28T08:10:09.849Z,16.50
2022-09-28T08:11:09.945Z,16.58
2022-09-28T08:12:10.123Z,16.61
2022-09-28T08:13:10.315Z,16.68
2022-09-28T08:14:10.512Z,16.74
2022-09-28T08:15:10.624Z,16.83
2022-09-28T08:16:10.802Z,16.94
2022-09-28T08:17:10.983Z,17.08
2022-09-28T08:18:11.184Z,17.14
2022-09-28T08:19:11.373Z,17.20
2022-09-28T08:20:11.544Z,17.26
2022-09-28T08:21:11.712Z,17.31
2022-09-28T08:22:11.948Z,17.41
2022-09-28T08:23:12.103Z,17.51
2022-09-28T08:24:12.244Z,17.63
2022-09-28T08:25:12.443Z,17.70
2022-09-28T08:26:15.511Z,17.74
2022-09-28T08:27:12.762Z,17.83
2022-09-28T08:28:12.934Z,17.87
2022-09-28T08:29:13.084Z,18.01
2022-09-28T08:30:13.275Z,18.26
2022-09-28T08:31:13.473Z,18.47
2022-09-28T08:32:13.604Z,18.63
2022-09-28T08:33:13.782Z,18.83
2022-09-28T08:34:13.956Z,19.04
2022-09-28T08:35:14.114Z,19.29
2022-09-28T08:36:14.305Z,19.44
2022-09-28T08:37:14.441Z,19.59
2022-09-28T08:38:14.618Z,19.79
2022-09-28T08:39:14.773Z,19.95
2022-09-28T08:40:14.964Z,20.06
2022-09-28T08:41:15.116Z,20.13
2022-09-28T08:42:15.273Z,20.24
2022-09-28T08:43:15.454Z,20.34
2022-09-28T08:44:15.681Z,20.48
2022-09-28T08:45:15.794Z,20.60
2022-09-28T08:46:15.986Z,20.67
2022-09-28T08:47:16.185Z,20.69
2022-09-28T08:48:16.345Z,20.65
2022-09-28T08:49:32.208Z,20.59
2022-09-28T08:50:17.654Z,20.58
2022-09-28T08:51:16.844Z,20.52
2022-09-28T08:52:16.992Z,20.55
2022-09-28T08:53:17.185Z,20.66
2022-09-28T08:54:17.482Z,20.88
2022-09-28T08:55:17.544Z,21.20
2022-09-28T08:56:17.706Z,21.39
2022-09-28T08:57:17.877Z,21.43
2022-09-28T08:58:18.105Z,21.48
2022-09-28T08:59:18.265Z,21.54
2022-09-28T09:00:18.435Z,21.69
2022-09-28T09:01:18.610Z,21.83
2022-09-28T09:02:18.778Z,21.93
2022-09-28T09:03:18.958Z,22.14
2022-09-28T09:04:19.155Z,22.65
2022-09-28T09:05:19.387Z,23.13
2022-09-28T09:06:19.476Z,23.43
2022-09-28T09:07:19.621Z,23.66
2022-09-28T09:08:20.286Z,23.84
2022-09-28T09:09:19.958Z,23.98
2022-09-28T09:10:20.168Z,23.93
2022-09-28T09:11:20.295Z,23.86
2022-09-28T09:12:20.477Z,23.78
2022-09-28T09:13:20.642Z,23.63
2022-09-28T09:14:20.803Z,23.40
2022-09-28T09:15:20.971Z,23.18
2022-09-28T09:16:21.149Z,22.93
2022-09-28T09:17:21.307Z,22.66
2022-09-28T09:18:21.458Z,22.47
2022-09-28T09:19:21.627Z,22.29
2022-09-28T09:20:21.789Z,22.23
2022-09-28T09:21:21.984Z,22.14
2022-09-28T09:22:22.137Z,22.08
2022-09-28T09:23:22.298Z,21.96
2022-09-28T09:24:22.488Z,21.75
2022-09-28T09:25:22.649Z,21.60
2022-09-28T09:26:25.876Z,21.51
2022-09-28T09:27:23.015Z,21.43
2022-09-28T09:28:23.168Z,21.39
2022-09-28T09:29:23.339Z,21.35
2022-09-28T09:30:23.489Z,21.32
2022-09-28T09:31:23.675Z,21.30
2022-09-28T09:32:23.828Z,21.27
2022-09-28T09:33:23.998Z,21.21
2022-09-28T09:34:24.139Z,21.20
2022-09-28T09:35:28.997Z,21.18
2022-09-28T09:36:25.499Z,21.14
2022-09-28T09:37:24.688Z,21.09
2022-09-28T09:38:24.846Z,20.99
2022-09-28T09:39:25.018Z,20.85
2022-09-28T09:40:25.241Z,20.78
2022-09-28T09:41:25.382Z,20.80
2022-09-28T09:42:25.542Z,20.78
2022-09-28T09:43:28.084Z,20.78
2022-09-28T09:44:26.865Z,20.80
2022-09-28T09:45:26.080Z,20.78
2022-09-28T09:46:26.235Z,20.81
2022-09-28T09:47:26.413Z,20.80
2022-09-28T09:48:26.550Z,20.80
2022-09-28T09:49:26.793Z,20.75
2022-09-28T09:50:26.941Z,20.78
2022-09-28T09:51:27.098Z,20.81
2022-09-28T09:52:27.347Z,20.78
2022-09-28T09:53:27.421Z,20.72
2022-09-28T09:54:27.587Z,20.65
2022-09-28T09:55:29.865Z,20.63
2022-09-28T09:56:27.920Z,20.65
2022-09-28T09:57:28.101Z,20.66
2022-09-28T09:58:28.251Z,20.63
2022-09-28T09:59:28.411Z,20.60
2022-09-28T10:00:28.601Z,20.62
2022-09-28T10:01:28.829Z,20.67
2022-09-28T10:02:29.000Z,20.75
2022-09-28T10:03:29.134Z,20.81
2022-09-28T10:04:29.291Z,20.84
2022-09-28T10:05:29.451Z,20.90
2022-09-28T10:06:29.612Z,20.92
2022-09-28T10:07:29.791Z,20.95
2022-09-28T10:08:29.942Z,20.95
2022-09-28T10:09:30.108Z,20.88
2022-09-28T10:10:30.263Z,20.87
2022-09-28T10:11:30.422Z,20.85
2022-09-28T10:12:30.602Z,20.84
2022-09-28T10:13:30.772Z,20.82
2022-09-28T10:14:30.946Z,20.77
2022-09-28T10:15:31.122Z,20.69
2022-09-28T10:16:31.341Z,20.62
2022-09-28T10:17:31.514Z,20.52
2022-09-28T10:18:31.636Z,20.37
2022-09-28T10:19:31.822Z,20.25
2022-09-28T10:20:32.017Z,20.14
2022-09-28T10:21:32.200Z,20.07
2022-09-28T10:22:32.373Z,20.03
2022-09-28T10:23:32.582Z,19.95
2022-09-28T10:24:32.743Z,19.85
2022-09-28T10:25:32.913Z,19.79
2022-09-28T10:26:33.123Z,19.71
2022-09-28T10:27:33.262Z,19.64
2022-09-28T10:28:33.459Z,19.56
2022-09-28T10:29:33.633Z,19.54
2022-09-28T10:30:33.832Z,19.51
2022-09-28T10:31:33.996Z,19.41
2022-09-28T10:32:34.134Z,19.34
2022-09-28T10:33:34.324Z,19.30
2022-09-28T10:34:34.504Z,19.24
2022-09-28T10:35:34.681Z,19.16
2022-09-28T10:36:34.894Z,19.14
2022-09-28T10:37:35.034Z,19.11
2022-09-28T10:38:35.204Z,19.09
2022-09-28T10:39:35.384Z,19.04
2022-09-28T10:40:35.616Z,19.04
2022-09-28T10:41:35.763Z,18.99
2022-09-28T10:42:35.928Z,18.96
2022-09-28T10:43:36.105Z,18.93
2022-09-28T10:44:36.274Z,18.96
2022-09-28T10:45:36.483Z,18.92
2022-09-28T10:46:36.650Z,18.89
2022-09-28T10:47:36.782Z,18.81
2022-09-28T10:48:36.964Z,18.80
2022-09-28T10:49:37.143Z,18.81
2022-09-28T10:50:37.333Z,18.77
2022-09-28T10:51:37.526Z,18.70
2022-09-28T10:52:37.721Z,18.62
2022-09-28T10:53:37.886Z,18.44
2022-09-28T10:54:38.044Z,18.29
2022-09-28T10:55:38.226Z,18.25
2022-09-28T10:56:38.424Z,18.22
2022-09-28T10:57:38.585Z,18.15
2022-09-28T10:58:38.755Z,18.05
2022-09-28T10:59:38.943Z,18.04
2022-09-28T11:00:39.105Z,18.05
2022-09-28T11:01:39.336Z,18.08
2022-09-28T11:02:39.505Z,18.08
2022-09-28T11:03:39.627Z,18.16
2022-09-28T11:04:39.804Z,18.18
2022-09-28T11:05:40.009Z,18.20
2022-09-28T11:06:40.159Z,18.23
2022-09-28T11:07:40.315Z,18.28
2022-09-28T11:08:40.485Z,18.29
2022-09-28T11:09:40.663Z,18.29
2022-09-28T11:10:40.834Z,18.29
2022-09-28T11:11:41.035Z,18.25
2022-09-28T11:12:41.207Z,18.13
2022-09-28T11:13:41.375Z,18.03
2022-09-28T11:14:42.879Z,17.95
2022-09-28T11:15:41.738Z,17.87
2022-09-28T11:16:42.029Z,17.80
2022-09-28T11:17:42.128Z,17.76
2022-09-28T11:18:42.276Z,17.72
2022-09-28T11:19:42.456Z,17.68
2022-09-28T11:20:45.190Z,17.70
2022-09-28T11:21:42.831Z,17.72
2022-09-28T11:22:43.022Z,17.72
2022-09-28T11:23:43.146Z,17.78
2022-09-28T11:24:43.336Z,17.82
2022-09-28T11:25:43.475Z,17.86
2022-09-28T11:26:43.669Z,17.90
2022-09-28T11:27:43.847Z,17.92
2022-09-28T11:28:44.045Z,17.95
2022-09-28T11:29:44.212Z,17.98
2022-09-28T11:30:44.449Z,17.98
2022-09-28T11:31:44.576Z,17.98
2022-09-28T11:32:44.715Z,17.98
2022-09-28T11:33:44.934Z,18.01
2022-09-28T11:34:58.588Z,18.03
2022-09-28T11:35:46.246Z,18.04
2022-09-28T11:36:45.446Z,18.04
2022-09-28T11:37:45.616Z,17.98
2022-09-28T11:38:45.825Z,17.95
2022-09-28T11:39:45.986Z,17.94
2022-09-28T11:40:46.251Z,17.94
2022-09-28T11:41:46.357Z,17.95
2022-09-28T11:42:46.506Z,17.97
2022-09-28T11:43:46.692Z,18.00
2022-09-28T11:44:46.887Z,18.00
2022-09-28T11:45:47.084Z,18.01
2022-09-28T11:46:47.217Z,18.01
2022-09-28T11:47:47.397Z,18.01
2022-09-28T11:48:47.567Z,18.00
2022-09-28T11:49:47.747Z,18.00
2022-09-28T11:50:47.935Z,18.03
2022-09-28T11:51:48.117Z,18.05
2022-09-28T11:52:48.277Z,18.07
2022-09-28T11:53:48.478Z,18.10
2022-09-28T11:54:48.647Z,18.13
2022-09-28T11:55:48.829Z,18.13
2022-09-28T11:56:49.009Z,18.11
2022-09-28T11:57:49.189Z,18.10
2022-09-28T11:58:49.363Z,18.04
2022-09-28T11:59:49.537Z,18.07
2022-09-28T12:00:49.708Z,18.08
2022-09-28T12:01:49.900Z,18.07
2022-09-28T12:02:50.209Z,18.10
2022-09-28T12:03:50.406Z,18.11
2022-09-28T12:04:50.418Z,18.18
2022-09-28T12:05:50.585Z,18.19
2022-09-28T12:06:50.769Z,18.26
2022-09-28T12:07:50.937Z,18.29
2022-09-28T12:08:51.109Z,18.31
2022-09-28T12:09:51.288Z,18.33
2022-09-28T12:10:51.486Z,18.33
2022-09-28T12:11:51.667Z,18.34
2022-09-28T12:12:51.884Z,18.37
2022-09-28T12:13:52.040Z,18.43
2022-09-28T12:14:52.230Z,18.45
2022-09-28T12:16:17.464Z,18.47
2022-09-28T12:17:05.879Z,18.49
2022-09-28T12:17:53.837Z,18.50
2022-09-28T12:18:52.951Z,18.53
2022-09-28T12:19:53.108Z,18.56
2022-09-28T12:20:53.309Z,18.59
2022-09-28T12:21:53.448Z,18.63
2022-09-28T12:22:53.599Z,18.65
2022-09-28T12:23:53.792Z,18.70
2022-09-28T12:24:53.962Z,18.71
2022-09-28T12:25:54.130Z,18.74
2022-09-28T12:26:54.341Z,18.77
2022-09-28T12:27:54.532Z,18.78
2022-09-28T12:28:54.649Z,18.81
2022-09-28T12:29:54.819Z,18.83
2022-09-28T12:30:55.054Z,18.84
2022-09-28T12:31:55.196Z,18.83
2022-09-28T12:32:55.368Z,18.78
2022-09-28T12:33:55.546Z,18.78
2022-09-28T12:34:55.718Z,18.77
2022-09-28T12:35:55.912Z,18.78
2022-09-28T12:36:56.099Z,18.77
2022-09-28T12:37:56.279Z,18.75
2022-09-28T12:39:17.510Z,18.77
2022-09-28T12:39:58.561Z,18.77
2022-09-28T12:40:56.866Z,18.78
2022-09-28T12:41:56.998Z,18.80
2022-09-28T12:42:57.176Z,18.83
2022-09-28T12:43:57.351Z,18.83
2022-09-28T12:44:59.651Z,18.88
2022-09-28T12:46:11.518Z,18.88
2022-09-28T12:46:58.936Z,18.90
2022-09-28T12:47:58.069Z,18.95
2022-09-28T12:49:47.299Z,18.99
2022-09-28T12:50:59.724Z,19.08
2022-09-28T12:51:58.810Z,19.08
2022-09-28T12:53:02.257Z,19.09
2022-09-28T12:53:59.130Z,19.09
2022-09-28T12:54:59.336Z,19.04
2022-09-28T12:55:59.491Z,19.04